createdAt,value
2018-07-04T00:00:48.258Z,0.00
2018-07-04T00:01:48.421Z,0.00
2018-07-04T00:02:48.594Z,0.00
2018-07-04T00:03:48.764Z,0.00
2018-07-04T00:04:48.936Z,0.00
2018-07-04T00:05:49.102Z,0.00
2018-07-04T00:06:49.270Z,0.00
2018-07-04T00:07:49.436Z,0.00
2018-07-04T00:08:49.609Z,0.00
2018-07-04T00:09:49.779Z,0.00
2018-07-04T00:10:49.958Z,0.00
2018-07-04T00:11:50.124Z,0.00
2018-07-04T00:12:50.288Z,0.00
2018-07-04T00:13:50.466Z,0.00
2018-07-04T00:14:50.638Z,0.00
2018-07-04T00:15:50.810Z,0.00
2018-07-04T00:16:50.973Z,0.00
2018-07-04T00:17:51.153Z,0.00
2018-07-04T00:18:51.313Z,0.00
2018-07-04T00:19:51.480Z,0.00
2018-07-04T00:20:51.656Z,0.00
2018-07-04T00:21:51.826Z,0.00
2018-07-04T00:22:51.990Z,0.00
2018-07-04T00:23:52.162Z,0.00
2018-07-04T00:24:52.328Z,0.00
2018-07-04T00:25:52.503Z,0.00
2018-07-04T00:26:52.681Z,0.00
2018-07-04T00:27:52.853Z,0.00
2018-07-04T00:28:53.023Z,0.00
2018-07-04T00:29:53.192Z,0.00
2018-07-04T00:30:53.361Z,0.00
2018-07-04T00:31:53.531Z,0.00
2018-07-04T00:32:53.735Z,0.00
2018-07-04T00:33:53.884Z,0.00
2018-07-04T00:34:54.051Z,0.00
2018-07-04T00:35:54.221Z,0.00
2018-07-04T00:36:54.386Z,0.00
2018-07-04T00:37:54.552Z,0.00
2018-07-04T00:38:54.723Z,0.00
2018-07-04T00:39:54.899Z,0.00
2018-07-04T00:40:55.065Z,0.00
2018-07-04T00:41:56.086Z,0.00
2018-07-04T00:42:55.448Z,0.00
2018-07-04T00:43:55.611Z,0.00
2018-07-04T00:44:55.782Z,0.00
2018-07-04T00:45:55.956Z,0.00
2018-07-04T00:46:56.128Z,0.00
2018-07-04T00:47:56.294Z,0.00
2018-07-04T00:48:56.468Z,0.00
2018-07-04T00:49:56.636Z,0.00
2018-07-04T00:50:56.853Z,0.00
2018-07-04T00:51:56.979Z,0.00
2018-07-04T00:52:57.150Z,0.00
2018-07-04T00:53:57.319Z,0.00
2018-07-04T00:54:57.487Z,0.00
2018-07-04T00:55:57.663Z,0.00
2018-07-04T00:56:57.845Z,0.00
2018-07-04T00:57:58.015Z,0.00
2018-07-04T00:58:58.188Z,0.00
2018-07-04T00:59:58.352Z,0.00
2018-07-04T01:01:51.693Z,0.00
2018-07-04T01:02:51.779Z,0.00
2018-07-04T01:03:51.906Z,0.00
2018-07-04T01:04:52.073Z,0.00
2018-07-04T01:05:52.249Z,0.00
2018-07-04T01:06:52.422Z,0.00
2018-07-04T01:07:52.589Z,0.00
2018-07-04T01:08:52.817Z,0.00
2018-07-04T01:09:52.910Z,0.00
2018-07-04T01:10:53.086Z,0.00
2018-07-04T01:11:53.253Z,0.00
2018-07-04T01:12:53.421Z,0.00
2018-07-04T01:13:53.587Z,0.00
2018-07-04T01:14:53.778Z,0.00
2018-07-04T01:15:53.931Z,0.00
2018-07-04T01:16:54.110Z,0.00
2018-07-04T01:17:54.267Z,0.00
2018-07-04T01:18:54.435Z,0.00
2018-07-04T01:19:54.605Z,0.00
2018-07-04T01:20:54.775Z,0.00
2018-07-04T01:21:54.956Z,0.00
2018-07-04T01:22:55.129Z,0.00
2018-07-04T01:23:55.294Z,0.00
2018-07-04T01:24:55.470Z,0.00
2018-07-04T01:25:55.635Z,0.00
2018-07-04T01:26:55.806Z,0.00
2018-07-04T01:27:55.972Z,0.00
2018-07-04T01:28:56.152Z,0.00
2018-07-04T01:29:56.315Z,0.00
2018-07-04T01:30:56.483Z,0.00
2018-07-04T01:31:56.650Z,0.00
2018-07-04T01:32:56.824Z,0.00
2018-07-04T01:33:56.992Z,0.00
2018-07-04T01:34:57.162Z,0.00
2018-07-04T01:35:57.330Z,0.00
2018-07-04T01:36:57.505Z,0.00
2018-07-04T01:37:57.666Z,0.00
2018-07-04T01:38:57.835Z,0.00
2018-07-04T01:39:58.005Z,0.00
2018-07-04T01:40:58.172Z,0.00
2018-07-04T01:41:58.339Z,0.00
2018-07-04T01:42:58.513Z,0.00
2018-07-04T01:43:58.679Z,0.00
2018-07-04T01:44:58.857Z,0.00
2018-07-04T01:45:59.014Z,0.00
2018-07-04T01:46:59.201Z,0.00
2018-07-04T01:47:59.370Z,0.00
2018-07-04T01:48:59.541Z,0.00
2018-07-04T01:49:59.732Z,0.00
2018-07-04T01:50:59.873Z,0.00
2018-07-04T01:52:00.042Z,0.00
2018-07-04T01:53:00.219Z,0.00
2018-07-04T01:54:00.385Z,0.00
2018-07-04T01:55:00.556Z,0.00
2018-07-04T01:56:00.741Z,0.00
2018-07-04T01:57:00.902Z,0.00
2018-07-04T01:58:01.067Z,0.00
2018-07-04T01:59:01.243Z,0.00
2018-07-04T02:00:01.410Z,0.00
2018-07-04T02:01:01.582Z,0.00
2018-07-04T02:02:01.748Z,0.00
2018-07-04T02:03:02.604Z,0.00
2018-07-04T02:04:02.100Z,0.00
2018-07-04T02:05:02.268Z,0.00
2018-07-04T02:06:02.434Z,0.00
2018-07-04T02:07:02.610Z,0.00
2018-07-04T02:08:02.785Z,0.00
2018-07-04T02:09:02.952Z,0.00
2018-07-04T02:10:03.116Z,0.00
2018-07-04T02:11:03.286Z,0.00
2018-07-04T02:12:03.456Z,0.00
2018-07-04T02:13:03.624Z,0.00
2018-07-04T02:14:03.799Z,0.00
2018-07-04T02:15:03.965Z,0.00
2018-07-04T02:16:04.132Z,0.00
2018-07-04T02:17:04.304Z,0.00
2018-07-04T02:18:04.470Z,0.00
2018-07-04T02:19:04.634Z,0.00
2018-07-04T02:20:04.806Z,0.00
2018-07-04T02:21:04.973Z,0.00
2018-07-04T02:22:05.142Z,0.00
2018-07-04T02:23:05.312Z,0.00
2018-07-04T02:24:05.486Z,0.00
2018-07-04T02:25:05.651Z,0.00
2018-07-04T02:26:05.822Z,0.00
2018-07-04T02:27:05.992Z,0.00
2018-07-04T02:28:06.160Z,0.00
2018-07-04T02:29:06.341Z,0.00
2018-07-04T02:30:06.510Z,0.00
2018-07-04T02:31:06.678Z,0.00
2018-07-04T02:32:06.847Z,0.00
2018-07-04T02:33:07.012Z,4.00
2018-07-04T02:34:07.181Z,4.00
2018-07-04T02:35:07.346Z,0.00
2018-07-04T02:36:07.516Z,0.00
2018-07-04T02:37:07.682Z,4.00
2018-07-04T02:38:07.851Z,4.00
2018-07-04T02:39:08.022Z,0.00
2018-07-04T02:40:08.187Z,4.00
2018-07-04T02:41:08.371Z,4.00
2018-07-04T02:42:08.518Z,4.00
2018-07-04T02:43:08.681Z,8.00
2018-07-04T02:44:08.860Z,4.00
2018-07-04T02:45:09.022Z,4.00
2018-07-04T02:46:09.200Z,8.00
2018-07-04T02:47:09.351Z,8.00
2018-07-04T02:48:09.521Z,8.00
2018-07-04T02:49:09.687Z,12.00
2018-07-04T02:50:09.853Z,12.00
2018-07-04T02:51:10.021Z,16.00
2018-07-04T02:52:10.190Z,16.00
2018-07-04T02:53:10.356Z,20.00
2018-07-04T02:54:10.519Z,20.00
2018-07-04T02:55:10.686Z,24.00
2018-07-04T02:56:10.856Z,28.00
2018-07-04T02:57:11.027Z,32.00
2018-07-04T02:58:11.190Z,32.00
2018-07-04T02:59:11.360Z,36.00
2018-07-04T03:00:11.533Z,40.00
2018-07-04T03:01:11.700Z,48.00
2018-07-04T03:02:11.868Z,52.00
2018-07-04T03:03:12.047Z,56.00
2018-07-04T03:04:12.217Z,60.00
2018-07-04T03:05:12.378Z,68.00
2018-07-04T03:06:12.552Z,76.00
2018-07-04T03:07:12.724Z,80.00
2018-07-04T03:08:12.893Z,88.00
2018-07-04T03:09:13.059Z,100.00
2018-07-04T03:10:13.230Z,104.00
2018-07-04T03:11:13.405Z,116.00
2018-07-04T03:12:13.571Z,124.00
2018-07-04T03:13:13.743Z,136.00
2018-07-04T03:14:13.917Z,144.00
2018-07-04T03:15:14.116Z,160.00
2018-07-04T03:16:14.322Z,168.00
2018-07-04T03:17:14.492Z,180.00
2018-07-04T03:18:14.657Z,196.00
2018-07-04T03:19:14.820Z,212.00
2018-07-04T03:20:14.996Z,224.00
2018-07-04T03:21:15.238Z,240.00
2018-07-04T03:22:15.368Z,256.00
2018-07-04T03:23:15.540Z,276.00
2018-07-04T03:24:15.707Z,292.00
2018-07-04T03:25:15.871Z,312.00
2018-07-04T03:26:16.042Z,332.00
2018-07-04T03:27:16.212Z,352.00
2018-07-04T03:28:16.371Z,372.00
2018-07-04T03:29:16.558Z,392.00
2018-07-04T03:30:16.720Z,416.00
2018-07-04T03:31:16.933Z,436.00
2018-07-04T03:32:17.049Z,460.00
2018-07-04T03:33:17.704Z,484.00
2018-07-04T03:34:17.392Z,508.00
2018-07-04T03:35:17.558Z,528.00
2018-07-04T03:36:17.722Z,556.00
2018-07-04T03:37:17.885Z,580.00
2018-07-04T03:38:18.064Z,604.00
2018-07-04T03:39:18.227Z,632.00
2018-07-04T03:40:18.414Z,656.00
2018-07-04T03:41:18.583Z,684.00
2018-07-04T03:42:18.748Z,712.00
2018-07-04T03:43:18.915Z,748.00
2018-07-04T03:44:19.086Z,780.00
2018-07-04T03:45:19.257Z,812.00
2018-07-04T03:46:19.424Z,844.00
2018-07-04T03:47:19.621Z,872.00
2018-07-04T03:48:19.766Z,900.00
2018-07-04T03:49:19.934Z,924.00
2018-07-04T03:50:20.102Z,948.00
2018-07-04T03:51:20.274Z,976.00
2018-07-04T03:52:20.441Z,1000.00
2018-07-04T03:53:20.608Z,1028.00
2018-07-04T03:54:20.788Z,1056.00
2018-07-04T03:55:20.957Z,1080.00
2018-07-04T03:56:21.127Z,1112.00
2018-07-04T03:57:21.295Z,1140.00
2018-07-04T03:58:21.462Z,1168.00
2018-07-04T03:59:21.632Z,1192.00
2018-07-04T04:00:21.797Z,1216.00
2018-07-04T04:01:21.964Z,1244.00
2018-07-04T04:02:22.134Z,1272.00
2018-07-04T04:03:22.300Z,1296.00
2018-07-04T04:04:23.124Z,1324.00
2018-07-04T04:05:22.624Z,1352.00
2018-07-04T04:06:22.790Z,1384.00
2018-07-04T04:07:23.017Z,1412.00
2018-07-04T04:08:23.123Z,1440.00
2018-07-04T04:09:23.297Z,1456.00
2018-07-04T04:10:23.460Z,1468.00
2018-07-04T04:11:23.626Z,1484.00
2018-07-04T04:12:23.792Z,1520.00
2018-07-04T04:13:23.973Z,1572.00
2018-07-04T04:14:24.128Z,1620.00
2018-07-04T04:15:24.296Z,1656.00
2018-07-04T04:16:24.466Z,1680.00
2018-07-04T04:17:24.633Z,1716.00
2018-07-04T04:18:24.806Z,1752.00
2018-07-04T04:19:24.984Z,1784.00
2018-07-04T04:20:25.134Z,1816.00
2018-07-04T04:21:25.302Z,1844.00
2018-07-04T04:22:25.476Z,1872.00
2018-07-04T04:23:25.642Z,1904.00
2018-07-04T04:24:25.808Z,1948.00
2018-07-04T04:25:25.976Z,1980.00
2018-07-04T04:26:26.142Z,2020.00
2018-07-04T04:27:26.313Z,2060.00
2018-07-04T04:28:26.484Z,2088.00
2018-07-04T04:29:26.652Z,2084.00
2018-07-04T04:30:26.818Z,2088.00
2018-07-04T04:31:26.990Z,2136.00
2018-07-04T04:32:27.157Z,2204.00
2018-07-04T04:33:27.327Z,2248.00
2018-07-04T04:34:27.498Z,2304.00
2018-07-04T04:35:27.660Z,2396.00
2018-07-04T04:36:27.835Z,2472.00
2018-07-04T04:37:28.004Z,2540.00
2018-07-04T04:38:28.166Z,2620.00
2018-07-04T04:39:28.335Z,2672.00
2018-07-04T04:40:28.504Z,2660.00
2018-07-04T04:41:28.674Z,2704.00
2018-07-04T04:42:28.894Z,2804.00
2018-07-04T04:43:29.014Z,2828.00
2018-07-04T04:44:29.187Z,2816.00
2018-07-04T04:45:29.355Z,2844.00
2018-07-04T04:46:29.526Z,2872.00
2018-07-04T04:47:29.702Z,2968.00
2018-07-04T04:48:29.854Z,3084.00
2018-07-04T04:49:30.026Z,3132.00
2018-07-04T04:50:30.193Z,3184.00
2018-07-04T04:51:30.364Z,3268.00
2018-07-04T04:52:30.536Z,3316.00
2018-07-04T04:53:30.701Z,3360.00
2018-07-04T04:54:30.867Z,3416.00
2018-07-04T04:55:31.033Z,3456.00
2018-07-04T04:56:31.206Z,3420.00
2018-07-04T04:57:31.375Z,3276.00
2018-07-04T04:58:31.547Z,3320.00
2018-07-04T04:59:31.714Z,3508.00
2018-07-04T05:00:31.885Z,3720.00
2018-07-04T05:01:32.068Z,3780.00
2018-07-04T05:02:32.240Z,3824.00
2018-07-04T05:03:32.411Z,3864.00
2018-07-04T05:04:32.573Z,3908.00
2018-07-04T05:05:32.742Z,3936.00
2018-07-04T05:06:32.911Z,3964.00
2018-07-04T05:07:33.132Z,3976.00
2018-07-04T05:08:33.260Z,4004.00
2018-07-04T05:09:33.427Z,4068.00
2018-07-04T05:10:33.591Z,4100.00
2018-07-04T05:11:33.766Z,4060.00
2018-07-04T05:12:33.933Z,4080.00
2018-07-04T05:13:34.111Z,4108.00
2018-07-04T05:14:34.277Z,4084.00
2018-07-04T05:15:34.508Z,4096.00
2018-07-04T05:16:34.623Z,4156.00
2018-07-04T05:17:34.792Z,4228.00
2018-07-04T05:18:34.965Z,4280.00
2018-07-04T05:19:35.138Z,4316.00
2018-07-04T05:20:35.306Z,4372.00
2018-07-04T05:21:35.475Z,4444.00
2018-07-04T05:22:35.644Z,4508.00
2018-07-04T05:23:35.813Z,4528.00
2018-07-04T05:24:35.978Z,4524.00
2018-07-04T05:25:36.147Z,4500.00
2018-07-04T05:26:36.313Z,4500.00
2018-07-04T05:27:36.488Z,4536.00
2018-07-04T05:28:36.663Z,4540.00
2018-07-04T05:29:36.846Z,4528.00
2018-07-04T05:30:37.018Z,4508.00
2018-07-04T05:31:37.187Z,4500.00
2018-07-04T05:32:37.356Z,4496.00
2018-07-04T05:33:37.524Z,4484.00
2018-07-04T05:34:37.694Z,4452.00
2018-07-04T05:35:37.864Z,4368.00
2018-07-04T05:36:38.043Z,4276.00
2018-07-04T05:37:38.204Z,4076.00
2018-07-04T05:38:38.367Z,4344.00
2018-07-04T05:39:38.541Z,4376.00
2018-07-04T05:40:38.714Z,4476.00
2018-07-04T05:41:38.889Z,4532.00
2018-07-04T05:42:39.051Z,4620.00
2018-07-04T05:43:39.218Z,4672.00
2018-07-04T05:44:39.385Z,4728.00
2018-07-04T05:45:39.555Z,4788.00
2018-07-04T05:46:39.728Z,4836.00
2018-07-04T05:47:39.899Z,4876.00
2018-07-04T05:48:40.072Z,4860.00
2018-07-04T05:49:40.228Z,4732.00
2018-07-04T05:50:40.397Z,4920.00
2018-07-04T05:51:40.564Z,5048.00
2018-07-04T05:52:40.739Z,5104.00
2018-07-04T05:53:40.907Z,5132.00
2018-07-04T05:54:41.078Z,5156.00
2018-07-04T05:55:41.247Z,5172.00
2018-07-04T05:56:41.411Z,5192.00
2018-07-04T05:57:41.581Z,5240.00
2018-07-04T05:58:41.750Z,5284.00
2018-07-04T05:59:41.919Z,5352.00
2018-07-04T06:00:42.089Z,5428.00
2018-07-04T06:01:42.253Z,5512.00
2018-07-04T06:02:42.422Z,5584.00
2018-07-04T06:03:42.593Z,5636.00
2018-07-04T06:04:42.758Z,5640.00
2018-07-04T06:05:42.929Z,5628.00
2018-07-04T06:06:43.097Z,5620.00
2018-07-04T06:07:43.267Z,5612.00
2018-07-04T06:08:43.433Z,5608.00
2018-07-04T06:09:43.604Z,5616.00
2018-07-04T06:10:43.780Z,5628.00
2018-07-04T06:11:43.944Z,5648.00
2018-07-04T06:12:44.117Z,5664.00
2018-07-04T06:13:44.294Z,5672.00
2018-07-04T06:14:44.469Z,5680.00
2018-07-04T06:15:44.635Z,5688.00
2018-07-04T06:16:44.805Z,5692.00
2018-07-04T06:17:45.019Z,5692.00
2018-07-04T06:18:45.137Z,5720.00
2018-07-04T06:19:45.309Z,5748.00
2018-07-04T06:20:45.485Z,5788.00
2018-07-04T06:21:45.658Z,5816.00
2018-07-04T06:22:45.826Z,5840.00
2018-07-04T06:23:45.997Z,5868.00
2018-07-04T06:24:46.170Z,5900.00
2018-07-04T06:25:46.337Z,5924.00
2018-07-04T06:26:46.504Z,5960.00
2018-07-04T06:27:46.680Z,5992.00
2018-07-04T06:28:46.848Z,6024.00
2018-07-04T06:29:47.018Z,6056.00
2018-07-04T06:30:47.188Z,6088.00
2018-07-04T06:31:47.356Z,6116.00
2018-07-04T06:32:47.528Z,6144.00
2018-07-04T06:33:47.696Z,6160.00
2018-07-04T06:34:47.863Z,6184.00
2018-07-04T06:35:48.033Z,6216.00
2018-07-04T06:36:48.201Z,6244.00
2018-07-04T06:37:48.366Z,6280.00
2018-07-04T06:38:48.535Z,6292.00
2018-07-04T06:39:48.712Z,6332.00
2018-07-04T06:40:48.888Z,6372.00
2018-07-04T06:41:49.057Z,6400.00
2018-07-04T06:42:49.226Z,6428.00
2018-07-04T06:43:49.396Z,6448.00
2018-07-04T06:44:49.575Z,6472.00
2018-07-04T06:45:49.745Z,6496.00
2018-07-04T06:46:49.917Z,6532.00
2018-07-04T06:47:50.079Z,6572.00
2018-07-04T06:48:50.358Z,6616.00
2018-07-04T06:49:50.423Z,6620.00
2018-07-04T06:50:50.598Z,6624.00
2018-07-04T06:51:50.762Z,6408.00
2018-07-04T06:52:50.939Z,6596.00
2018-07-04T06:53:51.105Z,6640.00
2018-07-04T06:54:51.278Z,6728.00
2018-07-04T06:55:51.447Z,6804.00
2018-07-04T06:56:51.615Z,6876.00
2018-07-04T06:57:51.784Z,6928.00
2018-07-04T06:58:51.960Z,6980.00
2018-07-04T06:59:52.134Z,7032.00
2018-07-04T07:00:52.305Z,7072.00
2018-07-04T07:01:52.479Z,7156.00
2018-07-04T07:02:52.646Z,7244.00
2018-07-04T07:03:52.825Z,7308.00
2018-07-04T07:04:52.998Z,7368.00
2018-07-04T07:05:53.166Z,7432.00
2018-07-04T07:06:53.339Z,7496.00
2018-07-04T07:07:53.513Z,7544.00
2018-07-04T07:08:53.677Z,7628.00
2018-07-04T07:09:53.851Z,7692.00
2018-07-04T07:10:54.028Z,7756.00
2018-07-04T07:11:54.195Z,7788.00
2018-07-04T07:12:54.361Z,7836.00
2018-07-04T07:13:54.542Z,7896.00
2018-07-04T07:14:54.714Z,7980.00
2018-07-04T07:15:54.883Z,8064.00
2018-07-04T07:16:55.056Z,8140.00
2018-07-04T07:17:55.229Z,8232.00
2018-07-04T07:18:55.405Z,8340.00
2018-07-04T07:19:55.578Z,8484.00
2018-07-04T07:20:55.749Z,8624.00
2018-07-04T07:21:55.914Z,9012.00
2018-07-04T07:22:56.089Z,9472.00
2018-07-04T07:23:56.257Z,9968.00
2018-07-04T07:24:56.429Z,10504.00
2018-07-04T07:25:56.601Z,10988.00
2018-07-04T07:26:56.776Z,11164.00
2018-07-04T07:27:56.950Z,11088.00
2018-07-04T07:28:57.118Z,10828.00
2018-07-04T07:29:57.291Z,10476.00
2018-07-04T07:30:57.461Z,10248.00
2018-07-04T07:31:57.654Z,10132.00
2018-07-04T07:32:57.806Z,10048.00
2018-07-04T07:33:57.994Z,10160.00
2018-07-04T07:34:58.156Z,10196.00
2018-07-04T07:35:58.331Z,10220.00
2018-07-04T07:36:58.504Z,10180.00
2018-07-04T07:37:58.672Z,10084.00
2018-07-04T07:38:58.840Z,9972.00
2018-07-04T07:39:59.009Z,9832.00
2018-07-04T07:40:59.182Z,9756.00
2018-07-04T07:41:59.414Z,9696.00
2018-07-04T07:42:59.526Z,9672.00
2018-07-04T07:43:59.697Z,9696.00
2018-07-04T07:44:59.875Z,9804.00
2018-07-04T07:46:00.049Z,9872.00
2018-07-04T07:47:00.218Z,9996.00
2018-07-04T07:48:00.388Z,10172.00
2018-07-04T07:49:00.559Z,10396.00
2018-07-04T07:50:00.733Z,10716.00
2018-07-04T07:51:00.912Z,11076.00
2018-07-04T07:52:01.095Z,11388.00
2018-07-04T07:53:01.265Z,11768.00
2018-07-04T07:54:01.448Z,12044.00
2018-07-04T07:55:01.615Z,12264.00
2018-07-04T07:56:01.790Z,12500.00
2018-07-04T07:57:01.964Z,12860.00
2018-07-04T07:58:02.137Z,13228.00
2018-07-04T07:59:02.309Z,13552.00
2018-07-04T08:00:02.484Z,13796.00
2018-07-04T08:01:02.657Z,13992.00
2018-07-04T08:02:02.836Z,14208.00
2018-07-04T08:03:03.000Z,14464.00
2018-07-04T08:04:03.168Z,14700.00
2018-07-04T08:05:03.343Z,14880.00
2018-07-04T08:06:03.520Z,15076.00
2018-07-04T08:07:03.698Z,15312.00
2018-07-04T08:08:03.870Z,15744.00
2018-07-04T08:09:04.047Z,15904.00
2018-07-04T08:10:04.221Z,16096.00
2018-07-04T08:11:04.414Z,16224.00
2018-07-04T08:12:04.566Z,16416.00
2018-07-04T08:13:04.744Z,16576.00
2018-07-04T08:14:04.920Z,16320.00
2018-07-04T08:15:05.096Z,16256.00
2018-07-04T08:16:05.275Z,16320.00
2018-07-04T08:17:05.447Z,15968.00
2018-07-04T08:18:05.624Z,15892.00
2018-07-04T08:19:05.797Z,15796.00
2018-07-04T08:20:05.974Z,15720.00
2018-07-04T08:21:06.147Z,15420.00
2018-07-04T08:22:06.322Z,15236.00
2018-07-04T08:23:06.495Z,15068.00
2018-07-04T08:24:06.671Z,14968.00
2018-07-04T08:25:06.847Z,14824.00
2018-07-04T08:26:07.022Z,14600.00
2018-07-04T08:27:07.196Z,14380.00
2018-07-04T08:28:07.374Z,14232.00
2018-07-04T08:29:07.544Z,14076.00
2018-07-04T08:30:07.725Z,13900.00
2018-07-04T08:31:07.901Z,13628.00
2018-07-04T08:32:08.079Z,13380.00
2018-07-04T08:33:08.244Z,13240.00
2018-07-04T08:34:08.421Z,13192.00
2018-07-04T08:35:08.599Z,13284.00
2018-07-04T08:36:08.785Z,6500.00
2018-07-04T08:37:08.964Z,6632.00
2018-07-04T08:38:09.137Z,6788.00
2018-07-04T08:39:09.343Z,7000.00
2018-07-04T08:40:09.489Z,7304.00
2018-07-04T08:41:09.665Z,7688.00
2018-07-04T08:42:09.841Z,8136.00
2018-07-04T08:43:10.021Z,8444.00
2018-07-04T08:44:10.196Z,8740.00
2018-07-04T08:45:10.370Z,8840.00
2018-07-04T08:46:10.549Z,8792.00
2018-07-04T08:47:10.724Z,8964.00
2018-07-04T08:48:10.905Z,8860.00
2018-07-04T08:49:11.088Z,8940.00
2018-07-04T08:50:11.266Z,9092.00
2018-07-04T08:51:11.479Z,9028.00
2018-07-04T08:52:11.618Z,8716.00
2018-07-04T08:53:11.795Z,8892.00
2018-07-04T08:54:11.979Z,8768.00
2018-07-04T08:55:12.151Z,8764.00
2018-07-04T08:56:12.325Z,9036.00
2018-07-04T08:57:12.513Z,9216.00
2018-07-04T08:58:12.732Z,8708.00
2018-07-04T08:59:12.879Z,8632.00
2018-07-04T09:00:13.062Z,8628.00
2018-07-04T09:01:13.232Z,8492.00
2018-07-04T09:02:13.407Z,8416.00
2018-07-04T09:03:13.582Z,8240.00
2018-07-04T09:04:13.758Z,8184.00
2018-07-04T09:05:14.123Z,8168.00
2018-07-04T09:06:14.100Z,8164.00
2018-07-04T09:07:14.264Z,8148.00
2018-07-04T09:08:14.442Z,8336.00
2018-07-04T09:09:14.619Z,8652.00
2018-07-04T09:10:14.798Z,8732.00
2018-07-04T09:11:14.978Z,9124.00
2018-07-04T09:12:15.160Z,8900.00
2018-07-04T09:13:15.326Z,9304.00
2018-07-04T09:14:15.506Z,9444.00
2018-07-04T09:15:15.681Z,9400.00
2018-07-04T09:16:15.861Z,9528.00
2018-07-04T09:17:16.034Z,9712.00
2018-07-04T09:18:16.206Z,9832.00
2018-07-04T09:19:16.387Z,10104.00
2018-07-04T09:20:16.572Z,10224.00
2018-07-04T09:21:16.738Z,10268.00
2018-07-04T09:22:16.921Z,10596.00
2018-07-04T09:23:17.098Z,10576.00
2018-07-04T09:24:17.282Z,10780.00
2018-07-04T09:25:17.455Z,10712.00
2018-07-04T09:26:17.628Z,11920.00
2018-07-04T09:27:17.807Z,13376.00
2018-07-04T09:28:17.983Z,14016.00
2018-07-04T09:29:18.174Z,13984.00
2018-07-04T09:30:18.360Z,14240.00
2018-07-04T09:31:18.538Z,14016.00
2018-07-04T09:32:18.711Z,14176.00
2018-07-04T09:33:18.890Z,14720.00
2018-07-04T09:34:19.077Z,14816.00
2018-07-04T09:35:19.278Z,15136.00
2018-07-04T09:36:19.512Z,14976.00
2018-07-04T09:37:19.632Z,15232.00
2018-07-04T09:38:19.840Z,15072.00
2018-07-04T09:39:20.005Z,15136.00
2018-07-04T09:40:20.184Z,15744.00
2018-07-04T09:41:20.361Z,16704.00
2018-07-04T09:42:20.541Z,22464.00
2018-07-04T09:43:20.719Z,32800.00
2018-07-04T09:44:20.906Z,38912.00
2018-07-04T09:45:21.090Z,39104.00
2018-07-04T09:46:21.268Z,40128.00
2018-07-04T09:47:21.445Z,34048.00
2018-07-04T09:48:21.642Z,13676.00
2018-07-04T09:49:21.830Z,24448.00
2018-07-04T09:50:22.024Z,32576.00
2018-07-04T09:51:22.199Z,42848.00
2018-07-04T09:52:22.435Z,44576.00
2018-07-04T09:53:22.709Z,48896.00
2018-07-04T09:54:22.816Z,48416.00
2018-07-04T09:55:22.995Z,43520.00
2018-07-04T09:56:23.185Z,38208.00
2018-07-04T09:57:23.361Z,40480.00
2018-07-04T09:58:23.547Z,41152.00
2018-07-04T09:59:23.737Z,30144.00
2018-07-04T10:00:23.925Z,39840.00
2018-07-04T10:01:24.107Z,34496.00
2018-07-04T10:02:24.286Z,24320.00
2018-07-04T10:03:24.469Z,15072.00
2018-07-04T10:04:24.659Z,17152.00
2018-07-04T10:05:24.844Z,16352.00
2018-07-04T10:06:25.026Z,11804.00
2018-07-04T10:07:25.218Z,11472.00
2018-07-04T10:08:25.409Z,11704.00
2018-07-04T10:09:25.594Z,11680.00
2018-07-04T10:10:25.776Z,10876.00
2018-07-04T10:11:25.957Z,10524.00
2018-07-04T10:12:26.141Z,10892.00
2018-07-04T10:13:26.325Z,12576.00
2018-07-04T10:14:26.517Z,15712.00
2018-07-04T10:15:26.692Z,16032.00
2018-07-04T10:16:26.879Z,15712.00
2018-07-04T10:17:27.051Z,12680.00
2018-07-04T10:18:27.239Z,10440.00
2018-07-04T10:19:27.416Z,9260.00
2018-07-04T10:20:27.599Z,8452.00
2018-07-04T10:21:27.781Z,8028.00
2018-07-04T10:22:27.965Z,7420.00
2018-07-04T10:23:28.146Z,6856.00
2018-07-04T10:24:28.329Z,6532.00
2018-07-04T10:25:28.508Z,6352.00
2018-07-04T10:26:28.686Z,6332.00
2018-07-04T10:27:28.868Z,6444.00
2018-07-04T10:28:29.067Z,6592.00
2018-07-04T10:29:29.238Z,6744.00
2018-07-04T10:30:29.415Z,6752.00
2018-07-04T10:31:29.598Z,6624.00
2018-07-04T10:32:29.778Z,6560.00
2018-07-04T10:33:29.961Z,6348.00
2018-07-04T10:34:30.146Z,6376.00
2018-07-04T10:35:30.333Z,6344.00
2018-07-04T10:36:30.512Z,6308.00
2018-07-04T10:37:30.713Z,6308.00
2018-07-04T10:38:30.873Z,6352.00
2018-07-04T10:39:31.057Z,6492.00
2018-07-04T10:40:31.238Z,6552.00
2018-07-04T10:41:31.420Z,6504.00
2018-07-04T10:42:31.596Z,6436.00
2018-07-04T10:43:31.775Z,6516.00
2018-07-04T10:44:31.955Z,6872.00
2018-07-04T10:45:32.140Z,7464.00
2018-07-04T10:46:32.326Z,8152.00
2018-07-04T10:47:32.501Z,8664.00
2018-07-04T10:48:32.685Z,8804.00
2018-07-04T10:49:32.869Z,8884.00
2018-07-04T10:50:33.045Z,8960.00
2018-07-04T10:51:33.225Z,8804.00
2018-07-04T10:52:33.406Z,8668.00
2018-07-04T10:53:33.582Z,8724.00
2018-07-04T10:54:33.782Z,8528.00
2018-07-04T10:55:33.945Z,18912.00
2018-07-04T10:56:34.131Z,18944.00
2018-07-04T10:57:34.316Z,19296.00
2018-07-04T10:58:34.550Z,19552.00
2018-07-04T10:59:34.679Z,19680.00
2018-07-04T11:00:34.867Z,19680.00
2018-07-04T11:01:35.040Z,19744.00
2018-07-04T11:02:35.229Z,19808.00
2018-07-04T11:03:35.412Z,19776.00
2018-07-04T11:04:36.281Z,20032.00
2018-07-04T11:05:35.752Z,21664.00
2018-07-04T11:06:35.931Z,21568.00
2018-07-04T11:07:36.113Z,23392.00
2018-07-04T11:08:36.292Z,24928.00
2018-07-04T11:09:36.476Z,27456.00
2018-07-04T11:10:36.661Z,27872.00
2018-07-04T11:11:36.835Z,38720.00
2018-07-04T11:12:37.009Z,46112.00
2018-07-04T11:13:37.191Z,26752.00
2018-07-04T11:14:37.372Z,26560.00
2018-07-04T11:15:37.561Z,25152.00
2018-07-04T11:16:37.754Z,24160.00
2018-07-04T11:17:37.923Z,28544.00
2018-07-04T11:18:38.109Z,35488.00
2018-07-04T11:19:38.284Z,23840.00
2018-07-04T11:20:38.468Z,21568.00
2018-07-04T11:21:38.652Z,20736.00
2018-07-04T11:22:38.841Z,19968.00
2018-07-04T11:23:39.009Z,19680.00
2018-07-04T11:24:39.186Z,20512.00
2018-07-04T11:25:39.377Z,24800.00
2018-07-04T11:26:39.558Z,30560.00
2018-07-04T11:27:39.745Z,26944.00
2018-07-04T11:28:39.924Z,28928.00
2018-07-04T11:29:40.104Z,33632.00
2018-07-04T11:30:40.296Z,25600.00
2018-07-04T11:31:40.466Z,25088.00
2018-07-04T11:32:40.645Z,28864.00
2018-07-04T11:33:40.844Z,51296.00
2018-07-04T11:34:41.006Z,54144.00
2018-07-04T11:35:41.183Z,28960.00
2018-07-04T11:36:41.368Z,26464.00
2018-07-04T11:37:41.561Z,23744.00
2018-07-04T11:38:41.748Z,21824.00
2018-07-04T11:39:41.932Z,26656.00
2018-07-04T11:40:42.114Z,67808.00
2018-07-04T11:41:42.311Z,25184.00
2018-07-04T11:42:42.487Z,26688.00
2018-07-04T11:43:42.668Z,27616.00
2018-07-04T11:44:42.858Z,24000.00
2018-07-04T11:45:43.048Z,55104.00
2018-07-04T11:46:43.221Z,93248.00
2018-07-04T11:47:43.404Z,84992.00
2018-07-04T11:48:43.601Z,31424.00
2018-07-04T11:49:43.779Z,41248.00
2018-07-04T11:50:43.959Z,33536.00
2018-07-04T11:51:44.144Z,31136.00
2018-07-04T11:52:44.335Z,22560.00
2018-07-04T11:53:44.540Z,34912.00
2018-07-04T11:54:44.704Z,61728.00
2018-07-04T11:55:44.885Z,46784.00
2018-07-04T11:56:45.077Z,27968.00
2018-07-04T11:57:45.258Z,30016.00
2018-07-04T11:58:45.443Z,44320.00
2018-07-04T11:59:45.635Z,96288.00
2018-07-04T12:00:45.823Z,77920.00
2018-07-04T12:01:46.044Z,92576.00
2018-07-04T12:02:46.187Z,62688.00
2018-07-04T12:03:46.366Z,88896.00
2018-07-04T12:04:46.553Z,34624.00
2018-07-04T12:05:46.750Z,23392.00
2018-07-04T12:06:46.943Z,23840.00
2018-07-04T12:08:39.371Z,22240.00
2018-07-04T12:09:39.547Z,19712.00
2018-07-04T12:10:39.738Z,20000.00
2018-07-04T12:11:39.914Z,17696.00
2018-07-04T12:12:40.103Z,18976.00
2018-07-04T12:13:40.284Z,19328.00
2018-07-04T12:14:40.465Z,19200.00
2018-07-04T12:15:40.645Z,24032.00
2018-07-04T12:16:40.825Z,24320.00
2018-07-04T12:17:41.008Z,26464.00
2018-07-04T12:18:41.183Z,26496.00
2018-07-04T12:19:41.377Z,22016.00
2018-07-04T12:20:41.565Z,22848.00
2018-07-04T12:21:41.757Z,22144.00